Steve C — WDI2267 — position and weather

sailwx.info

Track history (hours):
 
Tides and Currents Weather Stations Pressure Air Temp Water Temp Dewpoint Dewpoint Depression Visibility Wind Speed Wind Dir Waves Ship Positions

Steve C

Owner: Rankin Fish, Inc., Astoria, OR. More information available from US FCC via Universal Licensing System and Coast Guard Vessel Documentation Center.

Last reported at 2018-Apr-13 09:24 UTC. Time now 2018-Apr-25 06:49 UTC.
Position N 48°43' W 122°31'.
Warning: this ship's position is 11 days out of date.

Length 24 m.

Type: Fishing. MMSI: 367676420.

Date/timePositionNaut miles runAvg speedWind from/ knotsBaromVisibWave heightAir tempDewpointWater temp
2018-Apr-13 09:24N 48°43' W 122°31'  
2018-Apr-08 01:37N 48°39' W 122°34'2 8.7
2018-Apr-08 01:26N 48°38' W 122°36'5 8.5
2018-Apr-08 00:53N 48°34' W 122°40'65 6.1
2018-Apr-07 14:14N 48°18' W 124°16'2 7.4
2018-Apr-07 13:55N 48°19' W 124°19'3 7.0
2018-Apr-07 13:29N 48°20' W 124°23'3 7.1
2018-Apr-07 13:00N 48°22' W 124°27'3 7.1
2018-Apr-07 12:30N 48°23' W 124°32'3 6.8
2018-Apr-07 12:00N 48°24' W 124°37'5 7.2
2018-Apr-07 11:23N 48°24' W 124°44'3 7.4
2018-Apr-07 11:00N 48°23' W 124°48'1 0.0
2018-Apr-05 12:12N 48°23' W 124°48'3 7.7
2018-Apr-05 11:48N 48°24' W 124°43'2 8.3
2018-Apr-05 11:30N 48°24' W 124°39'4 8.9
2018-Apr-05 11:00N 48°23' W 124°33'510.3
2018-Apr-05 10:30N 48°21' W 124°26'3710.0
2018-Apr-05 06:47N 48°12' W 123°32'4 9.8
2018-Apr-05 06:21N 48°12' W 123°25'5 9.7
2018-Apr-05 05:52N 48°12' W 123°18'20 9.1
2018-Apr-05 03:42N 48°23' W 122°53'3 8.6
2018-Apr-05 03:22N 48°24' W 122°49'3 7.1
2018-Apr-05 02:54N 48°27' W 122°46'3 7.6
2018-Apr-05 02:30N 48°29' W 122°44'3 6.3
2018-Apr-05 02:00N 48°32' W 122°41'3 6.1
2018-Apr-05 01:30N 48°35' W 122°39'4 6.9
2018-Apr-05 00:59N 48°38' W 122°37'7 9.1
2018-Apr-05 00:14N 48°44' W 122°32'2 2.0
2018-Apr-04 23:22N 48°45' W 122°30'0 0.0
2018-Apr-04 22:43N 48°45' W 122°30'0 0.0
2018-Apr-04 22:13N 48°45' W 122°30'0 0.0
2018-Apr-04 21:58N 48°45' W 122°30'0 0.1
2018-Apr-04 20:03N 48°45' W 122°31'0 1.6
2018-Apr-04 19:53N 48°45' W 122°30'0 0.0
2018-Apr-04 19:23N 48°45' W 122°30'0 0.0
2018-Apr-04 18:59N 48°45' W 122°30'0 0.0
2018-Apr-04 18:29N 48°45' W 122°30'0 0.0
2018-Apr-04 17:59N 48°45' W 122°30'0 0.0
2018-Apr-04 17:29N 48°45' W 122°30'0 0.0
2018-Apr-04 16:59N 48°45' W 122°30'0 0.0
2018-Apr-04 16:29N 48°45' W 122°30'0 0.0
2018-Apr-04 15:41N 48°45' W 122°30'0 0.0
2018-Apr-04 15:29N 48°45' W 122°30'0 0.0
2018-Apr-04 14:53N 48°45' W 122°30'0 0.0
2018-Apr-04 14:29N 48°45' W 122°30'0 0.0
2018-Apr-04 13:59N 48°45' W 122°30'0 0.0
2018-Apr-04 13:11N 48°45' W 122°30'0 0.0
2018-Apr-04 12:59N 48°45' W 122°30'0 0.0
2018-Apr-04 12:10N 48°45' W 122°30'0 0.0
2018-Apr-04 11:54N 48°45' W 122°30'0 0.0
2018-Apr-04 11:30N 48°45' W 122°30'0 0.0
2018-Apr-04 11:00N 48°45' W 122°30'0 0.0
2018-Apr-04 10:30N 48°45' W 122°30'0 0.0
2018-Apr-04 10:00N 48°45' W 122°30'0 0.0
2018-Apr-04 09:24N 48°45' W 122°30'0 0.0
2018-Apr-04 08:54N 48°45' W 122°30'0 0.0
2018-Apr-04 08:24N 48°45' W 122°30'0 0.0
2018-Apr-04 08:00N 48°45' W 122°30'0 0.0
2018-Apr-04 07:30N 48°45' W 122°30'0 0.0
2018-Apr-04 07:00N 48°45' W 122°30'0 0.0
2018-Apr-04 06:30N 48°45' W 122°30'0 0.0
2018-Apr-04 06:00N 48°45' W 122°30'0 0.0
2018-Apr-04 05:24N 48°45' W 122°30'0 0.0
2018-Apr-04 05:00N 48°45' W 122°30'0 0.0
2018-Apr-04 04:30N 48°45' W 122°30'0 0.0
2018-Apr-04 04:00N 48°45' W 122°30'0 0.0
2018-Apr-04 03:30N 48°45' W 122°30'0 0.0
2018-Apr-04 03:00N 48°45' W 122°30'0 0.0
2018-Apr-04 02:30N 48°45' W 122°30'0 0.0
2018-Apr-04 02:00N 48°45' W 122°30'0 0.0
2018-Apr-04 01:18N 48°45' W 122°30'0 0.0
2018-Apr-04 01:00N 48°45' W 122°30'0 0.0
2018-Apr-04 00:30N 48°45' W 122°30'0 0.0
2018-Apr-03 23:48N 48°45' W 122°30'0 0.0
2018-Apr-03 23:21N 48°45' W 122°30'0 0.0
2018-Apr-03 22:54N 48°45' W 122°30'0 0.0
2018-Apr-03 21:54N 48°45' W 122°30'0 0.0
2018-Apr-03 21:30N 48°45' W 122°30'0 0.0
2018-Apr-03 21:00N 48°45' W 122°30'0 0.0
2018-Apr-03 20:30N 48°45' W 122°30'0 0.0
2018-Apr-03 19:24N 48°45' W 122°30'0 0.0
2018-Apr-03 19:00N 48°45' W 122°30'0 0.0
2018-Apr-03 18:22N 48°45' W 122°30'0 0.0
2018-Apr-03 17:58N 48°45' W 122°30'0 0.0
2018-Apr-03 17:28N 48°45' W 122°30'0 0.0
2018-Apr-03 16:58N 48°45' W 122°30'0 0.0
2018-Apr-03 16:10N 48°45' W 122°30'0 0.0
2018-Apr-03 15:58N 48°45' W 122°30'0 0.0
2018-Apr-03 15:28N 48°45' W 122°30'0 0.0
2018-Apr-03 14:58N 48°45' W 122°30'0 0.0
2018-Apr-03 14:28N 48°45' W 122°30'0 0.0
2018-Apr-03 13:52N 48°45' W 122°30'0 0.0
2018-Apr-03 13:28N 48°45' W 122°30'0 0.0
2018-Apr-03 12:58N 48°45' W 122°30'0 0.0
2018-Apr-03 12:28N 48°45' W 122°30'0 0.0
2018-Apr-03 11:40N 48°45' W 122°30'0 0.0
2018-Apr-03 11:28N 48°45' W 122°30'0 0.0
2018-Apr-03 10:34N 48°45' W 122°30'0 0.0
2018-Apr-03 10:04N 48°45' W 122°30'0 0.0
2018-Apr-03 09:52N 48°45' W 122°30'0 0.0
2018-Apr-03 09:28N 48°45' W 122°30'  
Track history (hours):
 
Tides and Currents Weather Stations Pressure Air Temp Water Temp Dewpoint Dewpoint Depression Visibility Wind Speed Wind Dir Waves Ship Positions

Steve C

Owner: Rankin Fish, Inc., Astoria, OR. More information available from US FCC via Universal Licensing System and Coast Guard Vessel Documentation Center.

Last reported at 2018-Apr-13 09:24 UTC. Time now 2018-Apr-25 06:49 UTC.
Position N 48°43' W 122°31'.
Warning: this ship's position is 11 days out of date.

Length 24 m.

Type: Fishing. MMSI: 367676420.

Date/timePositionNaut miles runAvg speedWind from/ knotsBaromVisibWave heightAir tempDewpointWater temp
2018-Apr-13 09:24N 48°43' W 122°31'  
2018-Apr-08 01:37N 48°39' W 122°34'2 8.7
2018-Apr-08 01:26N 48°38' W 122°36'5 8.5
2018-Apr-08 00:53N 48°34' W 122°40'65 6.1
2018-Apr-07 14:14N 48°18' W 124°16'2 7.4
2018-Apr-07 13:55N 48°19' W 124°19'3 7.0
2018-Apr-07 13:29N 48°20' W 124°23'3 7.1
2018-Apr-07 13:00N 48°22' W 124°27'3 7.1
2018-Apr-07 12:30N 48°23' W 124°32'3 6.8
2018-Apr-07 12:00N 48°24' W 124°37'5 7.2
2018-Apr-07 11:23N 48°24' W 124°44'3 7.4
2018-Apr-07 11:00N 48°23' W 124°48'1 0.0
2018-Apr-05 12:12N 48°23' W 124°48'3 7.7
2018-Apr-05 11:48N 48°24' W 124°43'2 8.3
2018-Apr-05 11:30N 48°24' W 124°39'4 8.9
2018-Apr-05 11:00N 48°23' W 124°33'510.3
2018-Apr-05 10:30N 48°21' W 124°26'3710.0
2018-Apr-05 06:47N 48°12' W 123°32'4 9.8
2018-Apr-05 06:21N 48°12' W 123°25'5 9.7
2018-Apr-05 05:52N 48°12' W 123°18'20 9.1
2018-Apr-05 03:42N 48°23' W 122°53'3 8.6
2018-Apr-05 03:22N 48°24' W 122°49'3 7.1
2018-Apr-05 02:54N 48°27' W 122°46'3 7.6
2018-Apr-05 02:30N 48°29' W 122°44'3 6.3
2018-Apr-05 02:00N 48°32' W 122°41'3 6.1
2018-Apr-05 01:30N 48°35' W 122°39'4 6.9
2018-Apr-05 00:59N 48°38' W 122°37'7 9.1
2018-Apr-05 00:14N 48°44' W 122°32'2 2.0
2018-Apr-04 23:22N 48°45' W 122°30'0 0.0
2018-Apr-04 22:43N 48°45' W 122°30'0 0.0
2018-Apr-04 22:13N 48°45' W 122°30'0 0.0
2018-Apr-04 21:58N 48°45' W 122°30'0 0.1
2018-Apr-04 20:03N 48°45' W 122°31'0 1.6
2018-Apr-04 19:53N 48°45' W 122°30'0 0.0
2018-Apr-04 19:23N 48°45' W 122°30'0 0.0
2018-Apr-04 18:59N 48°45' W 122°30'0 0.0
2018-Apr-04 18:29N 48°45' W 122°30'0 0.0
2018-Apr-04 17:59N 48°45' W 122°30'0 0.0
2018-Apr-04 17:29N 48°45' W 122°30'0 0.0
2018-Apr-04 16:59N 48°45' W 122°30'0 0.0
2018-Apr-04 16:29N 48°45' W 122°30'0 0.0
2018-Apr-04 15:41N 48°45' W 122°30'0 0.0
2018-Apr-04 15:29N 48°45' W 122°30'0 0.0
2018-Apr-04 14:53N 48°45' W 122°30'0 0.0
2018-Apr-04 14:29N 48°45' W 122°30'0 0.0
2018-Apr-04 13:59N 48°45' W 122°30'0 0.0
2018-Apr-04 13:11N 48°45' W 122°30'0 0.0
2018-Apr-04 12:59N 48°45' W 122°30'0 0.0
2018-Apr-04 12:10N 48°45' W 122°30'0 0.0
2018-Apr-04 11:54N 48°45' W 122°30'0 0.0
2018-Apr-04 11:30N 48°45' W 122°30'0 0.0
2018-Apr-04 11:00N 48°45' W 122°30'0 0.0
2018-Apr-04 10:30N 48°45' W 122°30'0 0.0
2018-Apr-04 10:00N 48°45' W 122°30'0 0.0
2018-Apr-04 09:24N 48°45' W 122°30'0 0.0
2018-Apr-04 08:54N 48°45' W 122°30'0 0.0
2018-Apr-04 08:24N 48°45' W 122°30'0 0.0
2018-Apr-04 08:00N 48°45' W 122°30'0 0.0
2018-Apr-04 07:30N 48°45' W 122°30'0 0.0
2018-Apr-04 07:00N 48°45' W 122°30'0 0.0
2018-Apr-04 06:30N 48°45' W 122°30'0 0.0
2018-Apr-04 06:00N 48°45' W 122°30'0 0.0
2018-Apr-04 05:24N 48°45' W 122°30'0 0.0
2018-Apr-04 05:00N 48°45' W 122°30'0 0.0
2018-Apr-04 04:30N 48°45' W 122°30'0 0.0
2018-Apr-04 04:00N 48°45' W 122°30'0 0.0
2018-Apr-04 03:30N 48°45' W 122°30'0 0.0
2018-Apr-04 03:00N 48°45' W 122°30'0 0.0
2018-Apr-04 02:30N 48°45' W 122°30'0 0.0
2018-Apr-04 02:00N 48°45' W 122°30'0 0.0
2018-Apr-04 01:18N 48°45' W 122°30'0 0.0
2018-Apr-04 01:00N 48°45' W 122°30'0 0.0
2018-Apr-04 00:30N 48°45' W 122°30'0 0.0
2018-Apr-03 23:48N 48°45' W 122°30'0 0.0
2018-Apr-03 23:21N 48°45' W 122°30'0 0.0
2018-Apr-03 22:54N 48°45' W 122°30'0 0.0
2018-Apr-03 21:54N 48°45' W 122°30'0 0.0
2018-Apr-03 21:30N 48°45' W 122°30'0 0.0
2018-Apr-03 21:00N 48°45' W 122°30'0 0.0
2018-Apr-03 20:30N 48°45' W 122°30'0 0.0
2018-Apr-03 19:24N 48°45' W 122°30'0 0.0
2018-Apr-03 19:00N 48°45' W 122°30'0 0.0
2018-Apr-03 18:22N 48°45' W 122°30'0 0.0
2018-Apr-03 17:58N 48°45' W 122°30'0 0.0
2018-Apr-03 17:28N 48°45' W 122°30'0 0.0
2018-Apr-03 16:58N 48°45' W 122°30'0 0.0
2018-Apr-03 16:10N 48°45' W 122°30'0 0.0
2018-Apr-03 15:58N 48°45' W 122°30'0 0.0
2018-Apr-03 15:28N 48°45' W 122°30'0 0.0
2018-Apr-03 14:58N 48°45' W 122°30'0 0.0
2018-Apr-03 14:28N 48°45' W 122°30'0 0.0
2018-Apr-03 13:52N 48°45' W 122°30'0 0.0
2018-Apr-03 13:28N 48°45' W 122°30'0 0.0
2018-Apr-03 12:58N 48°45' W 122°30'0 0.0
2018-Apr-03 12:28N 48°45' W 122°30'0 0.0
2018-Apr-03 11:40N 48°45' W 122°30'0 0.0
2018-Apr-03 11:28N 48°45' W 122°30'0 0.0
2018-Apr-03 10:34N 48°45' W 122°30'0 0.0
2018-Apr-03 10:04N 48°45' W 122°30'0 0.0
2018-Apr-03 09:52N 48°45' W 122°30'0 0.0
2018-Apr-03 09:28N 48°45' W 122°30'  

Dump ship's entire track history